Time;durP1;ratioP1;P1;durP2;ratioP2;P2;SDS_P1;SDS_P2;PMS_P1;PMS_P2;Temp;Humidity;BMP_temperature;BMP_pressure;BME280_temperature;BME280_humidity;BME280_pressure;Samples;Min_cycle;Max_cycle;Signal;HPM_P1;HPM_P2
2022/07/15 15:28:17;;;;;;;9.45;8.75;;;49.40;15.70;;;37.32;14.38;95661.84;5067827;28;20063;-56
2022/07/15 15:30:43;;;;;;;9.75;9.15;;;50.40;14.40;;;37.40;13.95;95656.91;5038114;28;20051;-53
2022/07/15 15:33:09;;;;;;;8.38;7.88;;;51.30;13.70;;;37.27;14.00;95662.41;5047088;28;20033;-55
2022/07/15 15:35:37;;;;;;;9.75;8.95;;;52.10;12.90;;;37.70;13.48;95664.81;5040951;28;20053;-58
2022/07/15 15:38:12;;;;;;;11.15;10.32;;;52.70;12.40;;;37.59;13.43;95661.53;5031142;28;20372;-58
2022/07/15 15:40:56;;;;;;;12.52;11.82;;;53.40;11.90;;;36.66;13.73;95657.56;5037035;28;20071;-58
2022/07/15 15:43:23;;;;;;;12.45;11.48;;;53.80;11.40;;;37.25;13.81;95662.06;5030075;28;20033;-55
2022/07/15 15:45:51;;;;;;;13.07;12.27;;;54.10;11.10;;;37.42;13.79;95655.25;5047307;28;20127;-55
2022/07/15 15:48:19;;;;;;;14.15;13.25;;;54.40;10.90;;;37.44;13.83;95654.78;5046073;28;20048;-58
2022/07/15 15:50:54;;;;;;;14.73;13.77;;;54.60;10.70;;;37.58;13.68;95656.44;5045843;28;20098;-56
2022/07/15 15:53:29;;;;;;;14.90;14.00;;;54.80;10.70;;;37.37;13.67;95644.66;5016444;28;20504;-57
2022/07/15 15:56:01;;;;;;;13.38;12.68;;;55.00;11.10;;;37.70;13.66;95658.44;5036536;28;20027;-56
2022/07/15 15:58:30;;;;;;;14.18;13.27;;;55.00;10.50;;;38.58;12.68;95657.06;5046681;28;20048;-57
2022/07/15 16:00:56;;;;;;;13.25;12.25;;;55.00;10.40;;;38.30;13.57;95657.94;5045173;28;20035;-58
2022/07/15 16:03:23;;;;;;;13.18;12.38;;;55.20;10.40;;;37.67;13.92;95659.34;5049990;28;20073;-58
2022/07/15 16:05:49;;;;;;;15.55;14.48;;;55.10;10.30;;;37.60;14.44;95654.75;5038196;28;20119;-58
2022/07/15 16:08:15;;;;;;;11.98;11.00;;;55.00;10.30;;;37.32;14.06;95639.63;5036314;28;20017;-56
2022/07/15 16:10:41;;;;;;;11.00;10.27;;;54.80;10.30;;;37.53;14.29;95646.63;5035807;28;20033;-53
2022/07/15 16:13:07;;;;;;;10.73;9.82;;;54.70;10.30;;;37.34;14.74;95648.31;5053341;28;20043;-58
2022/07/15 16:15:33;;;;;;;11.13;10.32;;;54.60;10.30;;;37.11;14.48;95657.66;5037708;28;20033;-57
2022/07/15 16:17:59;;;;;;;12.20;11.27;;;54.50;10.30;;;37.18;14.22;95651.13;5032285;28;20553;-58
2022/07/15 16:20:25;;;;;;;10.65;9.95;;;54.40;10.30;;;37.40;14.32;95651.34;5064694;28;20032;-56
2022/07/15 16:22:54;;;;;;;11.88;11.15;;;54.30;10.30;;;37.79;13.79;95646.69;5017396;28;20077;-56
2022/07/15 16:25:47;;;;;;;11.87;10.90;;;54.30;10.30;;;37.32;14.77;95647.97;5065781;28;20461;-56
2022/07/15 16:28:14;;;;;;;10.43;9.48;;;54.40;10.30;;;37.18;15.12;95648.38;5032281;28;20054;-58
2022/07/15 16:30:45;;;;;;;11.15;10.45;;;54.30;10.30;;;37.00;14.73;95644.06;5058194;28;20031;-55
2022/07/15 16:33:18;;;;;;;10.60;9.88;;;54.20;10.30;;;36.62;14.75;95646.56;5057037;28;20033;-58
2022/07/15 16:35:45;;;;;;;10.18;9.45;;;54.10;10.20;;;36.98;14.97;95652.06;5040671;28;20051;-57
2022/07/15 16:38:11;;;;;;;10.27;9.35;;;54.00;10.20;;;36.27;14.61;95646.16;5042751;28;20107;-57
2022/07/15 16:40:43;;;;;;;9.50;8.77;;;53.90;10.10;;;36.18;15.20;95640.44;5032816;28;20115;-56
2022/07/15 16:43:09;;;;;;;10.43;9.50;;;53.80;10.10;;;36.37;15.69;95642.38;5040461;28;20479;-58
2022/07/15 16:45:36;;;;;;;8.57;7.97;;;53.60;10.20;;;36.36;14.77;95648.34;5038998;28;20121;-54
2022/07/15 16:48:03;;;;;;;8.73;8.13;;;53.50;10.20;;;36.30;14.89;95645.31;5030672;28;20021;-55
2022/07/15 16:50:33;;;;;;;8.75;8.23;;;53.40;10.20;;;35.79;15.50;95660.66;5038440;28;20035;-52
2022/07/15 16:52:59;;;;;;;9.38;8.73;;;53.40;10.20;;;35.65;15.31;95653.41;5026012;28;20039;-56
2022/07/15 16:55:32;;;;;;;8.98;8.30;;;53.10;10.20;;;35.78;15.07;95653.56;5016062;28;20422;-55
2022/07/15 16:57:58;;;;;;;8.07;7.47;;;53.00;10.30;;;35.39;15.80;95658.66;5025142;28;20032;-52
2022/07/15 17:00:24;;;;;;;9.35;8.68;;;52.80;10.30;;;35.73;16.25;95654.03;5019556;28;20385;-55
2022/07/15 17:02:51;;;;;;;8.43;7.82;;;52.70;10.40;;;36.11;15.57;95660.78;5032184;28;20037;-56
2022/07/15 17:05:22;;;;;;;6.78;6.28;;;52.70;10.50;;;36.07;15.27;95660.09;5013637;28;20086;-53
2022/07/15 17:07:47;;;;;;;8.15;7.55;;;52.80;10.40;;;34.98;16.13;95650.69;5032367;28;20365;-56
2022/07/15 17:10:14;;;;;;;7.47;6.78;;;52.80;10.30;;;35.19;16.15;95661.41;5031932;28;20032;-56
2022/07/15 17:12:42;;;;;;;6.20;5.75;;;52.60;10.30;;;34.69;16.51;95647.59;5031970;28;20024;-54
2022/07/15 17:15:09;;;;;;;9.13;5.50;;;52.30;10.30;;;34.51;17.04;95668.00;5039607;28;20163;-52
2022/07/15 17:17:40;;;;;;;4.53;4.13;;;51.10;10.40;;;33.77;17.36;95656.75;5019635;28;20025;-54
2022/07/15 17:20:08;;;;;;;4.03;3.72;;;48.90;11.10;;;33.42;17.96;95657.16;5026873;28;20044;-56
2022/07/15 17:22:34;;;;;;;4.50;3.55;;;46.40;11.80;;;33.04;18.29;95665.44;5023915;28;20051;-54
2022/07/15 17:25:00;;;;;;;3.97;3.58;;;44.40;12.60;;;32.53;19.34;95658.75;5017011;28;20051;-52
2022/07/15 17:27:33;;;;;;;4.25;3.13;;;42.50;13.90;;;32.11;19.45;95657.81;5034050;28;20137;-51
2022/07/15 17:30:01;;;;;;;4.40;3.10;;;40.90;14.20;;;31.57;20.37;95656.09;5032220;28;20184;-54
2022/07/15 17:32:27;;;;;;;5.45;3.35;;;39.60;14.80;;;30.96;21.25;95663.66;5014059;28;20391;-54
2022/07/15 17:35:03;;;;;;;5.57;3.17;;;38.50;15.50;;;30.42;22.32;95666.41;5011689;28;20048;-51
2022/07/15 17:37:35;;;;;;;4.07;3.03;;;37.60;16.40;;;30.15;22.61;95663.22;5023272;28;20120;-52
2022/07/15 17:40:07;;;;;;;4.28;3.40;;;36.70;17.00;;;29.73;23.80;95667.38;5026813;28;20085;-54
2022/07/15 17:42:39;;;;;;;;;;;35.90;17.60;;;29.60;24.10;95665.34;5047203;28;20032;-50
2022/07/15 17:45:14;;;;;;;3.30;3.00;;;35.30;17.50;;;29.39;24.23;95666.81;5030935;28;19912;-52
2022/07/15 17:47:46;;;;;;;4.78;2.97;;;34.80;18.10;;;29.13;24.72;95670.59;5027608;28;20437;-50
2022/07/15 17:50:19;;;;;;;4.05;3.22;;;34.40;18.80;;;28.94;24.88;95677.09;5029966;28;20060;-52
2022/07/15 17:53:00;;;;;;;4.32;3.22;;;33.90;19.10;;;28.64;25.35;95671.78;5012761;28;20113;-50
2022/07/15 17:55:26;;;;;;;3.78;3.38;;;33.60;20.20;;;28.68;25.61;95682.78;4996975;28;20062;-53
2022/07/15 17:57:52;;;;;;;5.95;2.92;;;33.30;20.00;;;28.62;25.84;95673.34;5039363;28;20304;-51
2022/07/15 18:00:18;;;;;;;3.38;3.08;;;33.10;20.30;;;28.50;26.01;95686.16;5014230;28;20563;-50
2022/07/15 18:02:44;;;;;;;4.25;2.78;;;32.90;20.70;;;28.41;26.04;95682.16;5049031;28;20368;-53
2022/07/15 18:05:13;;;;;;;5.45;2.80;;;32.70;20.80;;;28.32;26.40;95676.94;5040691;28;20146;-55
2022/07/15 18:07:39;;;;;;;8.55;3.10;;;32.60;21.20;;;28.25;26.57;95685.88;5028900;28;20024;-52
2022/07/15 18:10:05;;;;;;;4.78;2.83;;;32.40;21.30;;;28.16;26.65;95682.66;5037224;28;20031;-50
2022/07/15 18:12:34;;;;;;;4.22;3.80;;;32.30;21.60;;;28.09;26.87;95685.34;5052478;28;20131;-53
2022/07/15 18:15:00;;;;;;;3.30;2.78;;;32.10;21.80;;;27.87;27.35;95682.34;5011225;28;20116;-51
2022/07/15 18:17:25;;;;;;;4.32;2.60;;;32.00;22.00;;;27.78;27.51;95690.06;5050151;28;20048;-57
2022/07/15 18:19:51;;;;;;;4.03;2.80;;;31.80;22.20;;;27.72;27.89;95691.53;5010107;28;21256;-51
2022/07/15 18:22:17;;;;;;;4.72;2.90;;;31.70;22.40;;;27.62;27.79;95690.25;5028541;28;20046;-56
2022/07/15 18:24:45;;;;;;;3.58;3.00;;;31.60;22.60;;;27.56;28.12;95688.19;5004939;28;20048;-56
2022/07/15 18:27:14;;;;;;;4.80;3.20;;;31.50;22.80;;;27.52;28.27;95687.38;5026982;28;20055;-53
2022/07/15 18:29:46;;;;;;;3.97;3.25;;;31.40;23.00;;;27.48;28.68;95689.25;5030605;28;20052;-55
2022/07/15 18:32:17;;;;;;;5.57;3.30;;;31.30;23.20;;;27.42;28.53;95691.53;5030488;28;20470;-53
2022/07/15 18:34:45;;;;;;;4.32;2.97;;;31.20;23.30;;;27.37;28.83;95687.19;5029623;28;20021;-53
2022/07/15 18:37:21;;;;;;;3.90;2.70;;;31.10;23.50;;;27.30;28.89;95692.56;5031741;28;20028;-51
2022/07/15 18:39:50;;;;;;;3.47;2.92;;;31.00;23.80;;;27.12;28.70;95692.28;5015978;28;20115;-55
2022/07/15 18:42:22;;;;;;;4.35;3.50;;;30.90;23.70;;;27.10;28.62;95702.00;5032568;28;20027;-52
2022/07/15 18:44:47;;;;;;;3.90;3.40;;;30.80;23.80;;;27.06;29.01;95698.44;5016483;28;20037;-52
2022/07/15 18:47:13;;;;;;;4.38;3.40;;;30.70;23.80;;;27.00;29.45;95698.72;5001981;28;20387;-54
2022/07/15 18:50:14;;;;;;;4.38;2.88;;;30.60;24.10;;;26.93;29.71;95701.38;5024691;28;20027;-56
2022/07/15 18:52:52;;;;;;;5.35;3.35;;;30.50;24.40;;;26.84;30.08;95703.56;5030178;28;20128;-55
2022/07/15 18:55:18;;;;;;;4.70;2.90;;;30.40;24.60;;;26.74;30.58;95704.19;5029734;28;20071;-52
2022/07/15 18:57:44;;;;;;;3.45;2.92;;;30.30;24.70;;;26.66;30.79;95706.00;5024679;28;20071;-55
2022/07/15 19:00:13;;;;;;;4.80;3.58;;;30.20;24.90;;;26.60;31.01;95709.41;5012124;28;20033;-57
2022/07/15 19:02:39;;;;;;;5.78;3.58;;;30.10;25.10;;;26.52;31.10;95712.03;5030019;28;20028;-54
2022/07/15 19:05:06;;;;;;;6.80;3.55;;;30.00;25.30;;;26.44;31.48;95712.22;5029735;28;20146;-55
2022/07/15 19:07:32;;;;;;;3.83;3.15;;;29.90;25.50;;;26.31;31.73;95720.59;5025335;28;20047;-52
2022/07/15 19:09:58;;;;;;;7.28;3.20;;;29.80;25.60;;;26.25;32.20;95721.25;5019236;28;20024;-54
2022/07/15 19:12:27;;;;;;;6.95;2.90;;;29.80;25.90;;;26.12;33.10;95725.31;5025586;28;20037;-54
2022/07/15 19:14:53;;;;;;;4.97;3.85;;;29.70;26.20;;;25.95;32.92;95723.78;5029809;28;20106;-51
2022/07/15 19:17:19;;;;;;;6.00;3.38;;;29.50;26.30;;;25.86;33.70;95726.75;5047149;28;20062;-53
2022/07/15 19:19:50;;;;;;;3.17;2.88;;;29.40;26.50;;;25.65;34.20;95721.63;5050136;28;20042;-51
2022/07/15 19:22:19;;;;;;;4.13;3.40;;;29.30;27.30;;;25.54;34.68;95731.50;5015314;28;20044;-54
2022/07/15 19:24:46;;;;;;;5.50;3.28;;;29.10;27.10;;;25.32;34.62;95738.44;5017096;28;20041;-56
2022/07/15 19:27:21;;;;;;;6.13;2.90;;;28.90;27.30;;;25.18;34.69;95740.84;5025401;28;20142;-55
2022/07/15 19:29:47;;;;;;;4.10;2.95;;;28.80;27.60;;;25.04;34.95;95744.00;5009315;28;20044;-55
2022/07/15 19:32:13;;;;;;;3.95;2.90;;;28.60;27.60;;;24.98;34.86;95737.25;5008959;28;20576;-55
2022/07/15 19:34:42;;;;;;;4.30;2.95;;;28.50;27.80;;;24.88;35.17;95741.28;5009609;28;20029;-52
2022/07/15 19:37:11;;;;;;;3.75;3.22;;;28.40;27.90;;;24.77;35.47;95742.97;5008529;28;20027;-54
2022/07/15 19:39:43;;;;;;;4.55;2.80;;;28.30;28.20;;;24.66;35.84;95750.84;5010156;28;20037;-52
2022/07/15 19:42:12;;;;;;;6.10;3.00;;;28.10;28.20;;;24.52;36.72;95753.22;5017607;28;20483;-54
2022/07/15 19:44:38;;;;;;;5.97;3.40;;;28.00;28.40;;;24.41;36.30;95767.38;5028221;28;20647;-54
2022/07/15 19:47:12;;;;;;;5.72;2.92;;;27.80;28.60;;;24.28;37.16;95765.78;5029825;28;20031;-50
2022/07/15 19:49:40;;;;;;;5.38;2.92;;;27.80;29.10;;;24.19;37.56;95762.44;5017425;28;20021;-51
2022/07/15 19:52:06;;;;;;;4.93;2.78;;;27.60;29.20;;;24.04;38.12;95763.19;5013509;28;20025;-50
2022/07/15 19:54:32;;;;;;;7.88;3.13;;;27.50;29.40;;;23.95;39.38;95768.78;5007487;28;20095;-53
2022/07/15 19:56:58;;;;;;;3.35;2.70;;;27.40;29.60;;;23.80;39.77;95777.69;4947980;28;24201;-53
2022/07/15 20:02:11;;;;;;;5.72;2.97;;;27.20;30.10;;;23.59;40.01;95783.25;4976801;28;20847;-52
2022/07/15 20:04:36;;;;;;;5.45;2.72;;;27.10;30.40;;;23.41;41.04;95782.69;4985087;28;20057;-50
2022/07/15 20:07:05;;;;;;;4.68;3.30;;;27.00;30.70;;;23.33;41.10;95784.44;4960151;28;20131;-53
2022/07/15 20:09:31;;;;;;;4.45;2.90;;;26.90;31.30;;;23.28;41.47;95787.34;4988690;28;20022;-49
2022/07/15 20:12:00;;;;;;;4.97;3.35;;;26.80;31.50;;;23.15;40.69;95786.56;4992069;28;20425;-51
2022/07/15 20:14:26;;;;;;;4.63;3.10;;;26.70;31.70;;;23.06;40.47;95788.63;4991799;28;20408;-50
2022/07/15 20:16:56;;;;;;;4.50;2.95;;;26.60;31.60;;;23.01;40.04;95794.28;4992612;28;20032;-46
2022/07/15 20:19:22;;;;;;;3.72;3.05;;;26.60;31.70;;;23.00;39.18;95792.69;4992954;28;20025;-49
2022/07/15 20:21:50;;;;;;;3.83;2.65;;;26.50;31.50;;;23.01;38.93;95794.28;4991364;28;20022;-46
2022/07/15 20:24:16;;;;;;;3.33;2.80;;;26.40;31.50;;;23.03;39.48;95794.72;5002511;28;20045;-52
2022/07/15 20:26:42;;;;;;;2.95;2.40;;;26.40;31.50;;;23.00;39.54;95792.69;4994003;28;20017;-49
2022/07/15 20:29:11;;;;;;;5.50;2.95;;;26.40;31.60;;;22.97;39.22;95804.22;4994575;28;20067;-48
2022/07/15 20:31:38;;;;;;;6.15;2.80;;;26.40;31.70;;;22.91;39.53;95798.22;5011759;28;20427;-53
2022/07/15 20:34:09;;;;;;;4.78;2.90;;;26.40;31.70;;;22.89;39.60;95803.19;5011763;28;20519;-53
2022/07/15 20:36:35;;;;;;;3.92;2.88;;;26.40;31.90;;;22.83;39.59;95802.59;4980376;28;20053;-49
2022/07/15 20:39:01;;;;;;;6.72;2.90;;;26.30;31.80;;;22.81;39.99;95807.59;4980811;28;20516;-52
2022/07/15 20:41:32;;;;;;;5.03;3.63;;;26.30;31.90;;;22.74;39.90;95801.13;4990431;28;20044;-51
2022/07/15 20:44:01;;;;;;;5.47;2.45;;;26.20;32.00;;;22.73;39.88;95811.19;4992714;28;20030;-51
2022/07/15 20:46:30;;;;;;;3.53;2.80;;;26.20;32.00;;;22.68;39.79;95814.13;4975527;28;21781;-50
2022/07/15 20:49:23;;;;;;;3.03;2.70;;;26.20;32.10;;;22.63;39.55;95817.06;5012389;28;20025;-49
2022/07/15 20:51:52;;;;;;;4.70;2.60;;;26.10;32.10;;;22.57;39.45;95816.47;4987613;28;20021;-50
2022/07/15 20:54:18;;;;;;;4.78;2.35;;;26.00;32.00;;;22.55;39.74;95812.50;5014666;28;20120;-52
2022/07/15 20:56:47;;;;;;;6.43;3.90;;;26.00;32.00;;;22.52;39.85;95816.69;5014703;28;20029;-53
2022/07/15 20:59:13;;;;;;;6.80;3.90;;;26.00;32.10;;;22.50;40.62;95818.97;5012289;28;20119;-52
2022/07/15 21:01:45;;;;;;;5.32;3.33;;;25.90;32.10;;;22.43;40.23;95810.56;4994997;28;20116;-52
2022/07/15 21:04:11;;;;;;;5.30;2.80;;;25.90;32.30;;;22.39;40.50;95812.34;4994953;28;20025;-50
2022/07/15 21:06:38;;;;;;;4.18;2.90;;;25.80;32.40;;;22.36;40.45;95818.44;4994987;28;20433;-50
2022/07/15 21:09:03;;;;;;;7.25;3.08;;;25.80;32.50;;;22.28;40.54;95814.72;4994148;28;20036;-49
2022/07/15 21:11:31;;;;;;;3.22;2.47;;;25.70;32.50;;;22.22;40.31;95818.75;5012525;28;20399;-51
2022/07/15 21:13:57;;;;;;;4.45;2.60;;;25.60;32.50;;;22.15;40.58;95818.44;5027387;28;20041;-50
2022/07/15 21:16:26;;;;;;;6.95;2.72;;;25.60;33.20;;;22.07;40.89;95817.41;5014184;28;20032;-51
2022/07/15 21:18:52;;;;;;;6.75;2.63;;;25.50;32.70;;;21.90;41.05;95823.75;5013470;28;20024;-52
2022/07/15 21:21:21;;;;;;;5.72;2.63;;;25.50;32.80;;;21.79;41.10;95822.56;5031975;28;20035;-49
2022/07/15 21:23:47;;;;;;;7.82;2.95;;;25.30;33.20;;;21.70;40.85;95824.56;5013742;28;20105;-46
2022/07/15 21:29:04;;;;;;;6.50;2.72;;;25.10;33.00;;;21.40;41.13;95824.59;5031804;28;20159;-50
2022/07/15 21:31:32;;;;;;;4.32;2.53;;;25.00;32.90;;;21.31;41.35;95826.53;5032053;28;20021;-50
2022/07/15 21:33:58;;;;;;;6.45;2.80;;;24.90;33.10;;;21.23;41.84;95830.06;5031675;28;20056;-48
2022/07/15 21:36:29;;;;;;;3.40;2.38;;;24.80;33.20;;;21.17;41.70;95829.44;5032057;28;20503;-49
2022/07/15 21:38:58;;;;;;;4.78;2.47;;;24.70;33.40;;;21.07;41.85;95829.81;5014433;28;20039;-48
2022/07/15 21:41:24;;;;;;;4.38;2.25;;;24.60;33.50;;;20.93;42.17;95831.94;5031871;28;20024;-53
2022/07/15 21:44:07;;;;;;;5.50;2.55;;;24.60;33.60;;;20.90;42.15;95836.13;5013957;28;20777;-49
2022/07/15 21:46:33;;;;;;;3.33;2.50;;;24.40;33.70;;;20.75;42.47;95831.22;5010369;28;20021;-50
2022/07/15 21:48:59;;;;;;;4.05;2.50;;;24.30;33.70;;;20.68;42.72;95837.13;5010008;28;20040;-49
2022/07/15 21:51:31;;;;;;;3.40;2.30;;;24.30;34.00;;;20.62;42.75;95841.13;5012353;28;20112;-49
2022/07/15 21:54:00;;;;;;;3.17;2.28;;;24.20;34.20;;;20.54;42.82;95840.03;5010634;28;20055;-48
2022/07/15 21:56:26;;;;;;;5.78;2.97;;;24.10;34.20;;;20.50;43.40;95843.69;5011869;28;20021;-48
2022/07/15 21:58:55;;;;;;;7.03;2.65;;;24.00;34.30;;;20.41;43.93;95837.47;5011037;28;20029;-47
2022/07/15 22:01:21;;;;;;;2.45;2.25;;;24.00;34.60;;;20.34;44.14;95841.47;5011305;28;20033;-50
2022/07/15 22:03:47;;;;;;;5.88;3.05;;;23.90;34.80;;;20.28;44.76;95836.56;5001455;28;20036;-49
2022/07/15 22:06:13;;;;;;;4.57;2.30;;;23.80;35.00;;;20.23;44.86;95840.19;5015329;28;20029;-46
2022/07/15 22:08:40;;;;;;;6.32;2.92;;;23.70;35.30;;;20.16;45.12;95839.91;5014537;28;20041;-49
2022/07/15 22:11:12;;;;;;;6.78;2.45;;;23.70;35.50;;;20.13;45.39;95834.34;5016902;28;20040;-51
2022/07/15 22:13:42;;;;;;;5.47;2.40;;;23.60;35.80;;;20.08;45.58;95844.19;5013513;28;20021;-51
2022/07/15 22:16:11;;;;;;;4.35;2.30;;;23.60;35.80;;;20.02;45.62;95848.16;5017482;28;20029;-48
2022/07/15 22:18:40;;;;;;;3.58;2.20;;;23.60;36.10;;;19.99;45.66;95845.28;5011203;28;20074;-51
2022/07/15 22:21:09;;;;;;;4.75;2.40;;;23.50;36.30;;;19.95;45.86;95852.47;4993849;28;20029;-47
2022/07/15 22:23:37;;;;;;;7.07;2.30;;;23.50;36.40;;;19.94;45.86;95848.97;4995121;28;20485;-48
2022/07/15 22:26:06;;;;;;;4.43;2.28;;;23.40;36.50;;;19.90;46.26;95842.59;5012780;28;20069;-48
2022/07/15 22:28:32;;;;;;;4.05;2.28;;;23.40;36.70;;;19.88;46.66;95842.13;5013336;28;20112;-48
2022/07/15 22:31:01;;;;;;;4.75;2.85;;;23.30;36.80;;;19.81;46.78;95848.00;5031064;28;20472;-49
2022/07/15 22:33:33;;;;;;;4.57;3.17;;;23.30;37.00;;;19.76;46.97;95852.75;5012585;28;20378;-48
2022/07/15 22:36:02;;;;;;;5.47;2.35;;;23.30;37.20;;;19.70;47.28;95854.81;5013234;28;20052;-51
2022/07/15 22:38:31;;;;;;;4.15;2.28;;;23.20;37.30;;;19.66;47.41;95858.47;5005009;28;20111;-47
2022/07/15 22:41:00;;;;;;;4.13;2.50;;;23.20;37.50;;;19.62;47.55;95855.59;5014207;28;20029;-53
2022/07/15 22:43:33;;;;;;;5.40;2.50;;;23.10;37.60;;;19.58;47.87;95860.00;5009744;28;20063;-52
2022/07/15 22:45:59;;;;;;;6.10;2.58;;;23.10;37.80;;;19.50;47.90;95860.81;4993444;28;20140;-51
2022/07/15 22:48:31;;;;;;;4.05;2.70;;;23.00;37.70;;;19.44;48.34;95851.25;5005983;28;20119;-50
2022/07/15 22:51:03;;;;;;;4.55;2.50;;;23.00;38.00;;;19.41;48.51;95855.38;5012966;28;20029;-50
2022/07/15 22:53:32;;;;;;;4.93;2.53;;;22.90;38.10;;;19.34;48.81;95863.16;5013248;28;20036;-52
